Time;durP1;ratioP1;P1;durP2;ratioP2;P2;SDS_P1;SDS_P2;PMS_P1;PMS_P2;Temp;Humidity;BMP_temperature;BMP_pressure;BME280_temperature;BME280_humidity;BME280_pressure;Samples;Min_cycle;Max_cycle;Signal;HPM_P1;HPM_P2
2023/10/02 00:01:51;;;;;;;18.97;11.30;;;;;;;17.11;80.58;95813.47;5022445;28;20298;-76
2023/10/02 00:04:17;;;;;;;18.00;11.13;;;;;;;17.08;79.82;95811.25;4998828;28;20230;-77
2023/10/02 00:06:50;;;;;;;18.20;10.80;;;;;;;17.03;80.15;95808.44;5003453;28;20236;-76
2023/10/02 00:09:20;;;;;;;19.93;11.07;;;;;;;17.08;79.52;95805.94;5015678;28;20257;-77
2023/10/02 00:11:46;;;;;;;14.17;9.93;;;;;;;16.95;79.79;95806.09;5024398;28;20292;-76
2023/10/02 00:14:18;;;;;;;21.30;10.30;;;;;;;16.99;79.65;95804.63;5009035;28;20246;-76
2023/10/02 00:17:03;;;;;;;20.40;10.17;;;;;;;16.91;79.33;95804.09;4992804;28;20303;-77
2023/10/02 00:19:43;;;;;;;17.03;9.70;;;;;;;16.87;79.36;95805.53;5009149;28;20225;-76
2023/10/02 00:22:35;;;;;;;16.23;9.93;;;;;;;16.97;79.28;95805.84;5018122;28;20225;-77
2023/10/02 00:25:07;;;;;;;18.10;9.60;;;;;;;16.89;79.30;95809.59;5009645;28;20262;-75
2023/10/02 00:27:34;;;;;;;15.30;9.17;;;;;;;16.88;78.74;95805.34;4993116;28;20258;-77
2023/10/02 00:30:00;;;;;;;16.97;9.43;;;;;;;16.78;78.98;95807.66;5017328;28;20391;-76
2023/10/02 00:32:34;;;;;;;16.17;9.40;;;;;;;16.89;78.78;95806.94;5018164;28;20313;-75
2023/10/02 00:35:01;;;;;;;16.67;9.17;;;;;;;16.91;78.66;95810.16;4993642;28;20470;-76
2023/10/02 00:37:47;;;;;;;18.10;9.10;;;;;;;16.94;78.43;95796.53;5024268;28;20277;-70
2023/10/02 00:40:22;;;;;;;13.23;8.57;;;;;;;16.94;78.04;95801.00;4996510;28;20281;-71
2023/10/02 00:42:55;;;;;;;15.43;8.70;;;;;;;16.89;77.41;95799.00;5015962;28;20230;-72
2023/10/02 00:45:24;;;;;;;16.50;8.80;;;;;;;16.91;77.44;95806.75;5011003;28;20229;-71
2023/10/02 00:47:49;;;;;;;18.53;8.50;;;;;;;16.94;77.49;95801.81;4990585;28;20246;-71
2023/10/02 00:50:17;;;;;;;12.20;8.20;;;;;;;16.91;77.63;95804.09;5016533;28;20230;-70
2023/10/02 00:53:03;;;;;;;16.00;8.23;;;;;;;16.97;76.90;95798.75;4998037;28;20910;-71
2023/10/02 00:55:33;;;;;;;13.50;8.10;;;;;;;17.03;76.07;95800.50;5014045;28;20225;-71
2023/10/02 00:58:00;;;;;;;12.07;7.90;;;;;;;16.80;76.89;95798.47;5019804;28;20237;-70
2023/10/02 01:00:36;;;;;;;13.63;7.60;;;;;;;16.79;76.49;95799.50;5011709;28;20226;-70
2023/10/02 01:03:15;;;;;;;15.93;7.80;;;;;;;16.94;76.60;95801.00;5004938;28;20783;-71
2023/10/02 01:05:47;;;;;;;19.90;7.77;;;;;;;16.90;75.98;95790.06;5038717;28;20333;-71
2023/10/02 01:08:42;;;;;;;15.53;7.33;;;;;;;16.88;75.85;95792.13;5007037;28;20234;-71
2023/10/02 01:11:08;;;;;;;12.80;7.50;;;;;;;16.95;75.83;95789.41;5007988;28;20230;-72
2023/10/02 01:13:35;;;;;;;14.80;7.10;;;;;;;17.01;75.25;95789.34;5004224;28;20232;-72
2023/10/02 01:16:11;;;;;;;13.73;7.13;;;;;;;16.95;75.45;95798.16;4999154;28;20237;-72
2023/10/02 01:18:37;;;;;;;12.03;7.40;;;;;;;16.79;75.63;95790.75;5001786;28;20295;-71
2023/10/02 01:21:11;;;;;;;12.87;7.03;;;;;;;16.83;75.66;95791.94;5013640;28;20230;-70
2023/10/02 01:26:40;;;;;;;12.10;7.20;;;;;;;16.73;75.56;95789.78;5017573;28;20271;-72
2023/10/02 01:29:06;;;;;;;15.53;7.03;;;;;;;16.84;75.03;95786.44;4994071;28;20230;-71
2023/10/02 01:31:35;;;;;;;15.93;7.50;;;;;;;16.63;75.59;95794.75;4989259;28;20276;-71
2023/10/02 01:34:02;;;;;;;11.83;7.03;;;;;;;16.77;75.36;95790.16;4995612;28;20245;-71
2023/10/02 01:36:34;;;;;;;14.47;7.20;;;;;;;16.68;75.17;95792.28;5015533;28;20230;-71
2023/10/02 01:39:36;;;;;;;15.67;7.23;;;;;;;16.71;74.79;95796.31;5015784;28;20233;-71
2023/10/02 01:41:55;;;;;;;13.83;7.00;;;;;;;16.68;75.46;95800.19;5031578;28;22364;-71
2023/10/02 01:44:22;;;;;;;12.97;6.57;;;;;;;16.67;75.51;95795.16;5014919;28;20301;-72
2023/10/02 01:46:52;;;;;;;16.70;7.50;;;;;;;16.57;75.39;95797.44;5014152;28;20245;-71
2023/10/02 01:49:25;;;;;;;10.97;6.80;;;;;;;16.60;75.13;95800.47;4997570;28;20833;-71
2023/10/02 01:52:08;;;;;;;14.40;6.90;;;;;;;16.43;75.83;95798.53;5015940;28;20261;-71
2023/10/02 01:54:34;;;;;;;13.57;7.27;;;;;;;16.41;75.55;95798.72;5014512;28;20777;-71
2023/10/02 01:57:00;;;;;;;14.43;7.23;;;;;;;16.41;75.62;95801.38;5021512;28;20323;-72
2023/10/02 01:59:26;;;;;;;13.47;7.00;;;;;;;16.54;74.96;95808.44;5000117;28;20897;-72
2023/10/02 02:01:53;;;;;;;13.13;7.33;;;;;;;16.43;75.20;95803.81;5003790;28;20271;-72
2023/10/02 02:04:19;;;;;;;13.33;7.00;;;;;;;16.54;75.12;95803.16;5012113;28;20273;-71
2023/10/02 02:06:57;;;;;;;14.43;7.17;;;;;;;16.58;74.79;95796.41;4998335;28;20284;-73
2023/10/02 02:09:23;;;;;;;12.47;7.10;;;;;;;16.46;75.32;95803.38;5000610;28;20221;-72
2023/10/02 02:12:05;;;;;;;13.50;6.93;;;;;;;16.41;74.89;95806.66;5000733;28;20222;-71
2023/10/02 02:17:34;;;;;;;11.57;6.77;;;;;;;16.49;74.29;95809.06;5003916;28;20232;-72
2023/10/02 02:20:10;;;;;;;14.83;6.87;;;;;;;16.43;74.39;95806.47;5013164;28;20292;-71
2023/10/02 02:22:37;;;;;;;12.17;6.80;;;;;;;16.29;74.72;95807.56;5007910;28;20817;-71
2023/10/02 02:25:04;;;;;;;12.50;6.87;;;;;;;16.30;74.80;95798.59;5013398;28;20226;-71
2023/10/02 02:27:29;;;;;;;14.90;6.67;;;;;;;16.25;74.77;95803.72;4998120;28;21051;-71
2023/10/02 02:29:56;;;;;;;15.03;6.97;;;;;;;16.31;74.71;95810.81;4995958;28;20238;-71
2023/10/02 02:35:14;;;;;;;14.30;6.80;;;;;;;16.22;74.13;95814.69;4930312;28;20746;-72
2023/10/02 02:37:41;;;;;;;12.43;6.17;;;;;;;16.16;73.56;95817.19;5012682;28;20234;-72
2023/10/02 02:40:22;;;;;;;10.50;6.23;;;;;;;16.26;72.96;95823.84;4999569;28;20226;-72
2023/10/02 02:42:51;;;;;;;14.80;6.40;;;;;;;16.11;72.83;95817.03;5015335;28;20233;-71
2023/10/02 02:45:36;;;;;;;12.90;6.30;;;;;;;16.05;72.86;95823.13;5000427;28;20234;-71
2023/10/02 02:48:06;;;;;;;14.07;6.33;;;;;;;15.99;73.16;95823.16;5009172;28;20234;-70
2023/10/02 02:50:41;;;;;;;13.13;6.20;;;;;;;16.06;72.18;95822.13;5022395;28;20236;-70
2023/10/02 02:53:23;;;;;;;14.03;6.07;;;;;;;15.93;72.70;95810.81;4983985;28;20295;-73
2023/10/02 02:56:10;;;;;;;10.73;6.00;;;;;;;15.97;72.00;95814.66;5003360;28;20313;-70
2023/10/02 02:58:38;;;;;;;12.60;5.93;;;;;;;15.79;72.64;95812.69;5007848;28;20229;-70
2023/10/02 03:01:06;;;;;;;12.43;5.90;;;;;;;15.85;71.64;95811.88;4988278;28;20226;-71
2023/10/02 03:03:41;;;;;;;15.40;6.10;;;;;;;15.78;71.42;95823.47;5005485;28;20234;-72
2023/10/02 03:06:14;;;;;;;12.80;5.87;;;;;;;15.73;70.77;95810.09;4998419;28;20225;-72
2023/10/02 03:08:40;;;;;;;14.07;5.90;;;;;;;15.84;70.94;95815.50;5005570;28;20222;-72
2023/10/02 03:11:06;;;;;;;12.87;5.77;;;;;;;15.70;70.97;95808.66;5025602;28;20226;-71
2023/10/02 03:13:35;;;;;;;13.30;5.63;;;;;;;15.80;69.85;95814.31;4985581;28;20237;-71
2023/10/02 03:16:10;;;;;;;12.90;5.50;;;;;;;15.84;68.95;95810.25;5012937;28;20233;-71
2023/10/02 03:18:43;;;;;;;10.23;5.27;;;;;;;15.88;69.50;95811.44;5004157;28;20226;-70
2023/10/02 03:21:23;;;;;;;11.07;5.50;;;;;;;15.88;68.75;95815.91;5013533;28;20695;-71
2023/10/02 03:23:49;;;;;;;11.70;5.30;;;;;;;15.78;69.86;95811.09;5022866;28;20230;-72
2023/10/02 03:29:02;;;;;;;11.00;5.60;;;;;;;15.84;69.34;95812.88;5019756;28;20786;-71
2023/10/02 03:31:35;;;;;;;12.43;5.33;;;;;;;15.90;69.34;95805.97;5021968;28;20281;-69
2023/10/02 03:36:59;;;;;;;10.33;5.60;;;;;;;15.90;68.78;95809.41;5025207;28;20309;-71
2023/10/02 03:42:12;;;;;;;11.27;5.50;;;;;;;15.69;69.18;95812.31;5017715;28;20324;-72
2023/10/02 03:44:39;;;;;;;12.10;5.63;;;;;;;15.69;68.94;95822.88;5015825;28;20228;-71
2023/10/02 03:47:04;;;;;;;12.73;5.37;;;;;;;15.78;68.97;95812.91;5013220;28;20257;-70
2023/10/02 03:49:33;;;;;;;12.20;5.50;;;;;;;15.75;68.29;95811.50;4980427;28;20315;-72
2023/10/02 03:51:58;;;;;;;11.43;5.07;;;;;;;15.79;68.00;95815.31;4998591;28;20277;-70
2023/10/02 03:54:24;;;;;;;10.80;5.70;;;;;;;15.85;68.24;95811.06;5033408;28;20293;-70
2023/10/02 03:56:50;;;;;;;12.07;5.30;;;;;;;15.86;67.64;95812.66;5023846;28;20328;-77
2023/10/02 03:59:17;;;;;;;13.73;5.20;;;;;;;15.65;67.28;95819.03;5017660;28;20222;-79
2023/10/02 04:01:43;;;;;;;13.47;5.50;;;;;;;15.67;67.54;95824.91;4989774;28;20766;-76
2023/10/02 04:06:42;;;;;;;9.70;5.13;;;;;;;15.62;67.43;95832.66;5024075;28;20237;-74
2023/10/02 04:11:54;;;;;;;13.90;5.37;;;;;;;15.63;66.26;95834.28;5009891;28;20226;-78
2023/10/02 04:14:33;;;;;;;11.30;5.43;;;;;;;15.49;66.58;95830.06;5017479;28;20238;-76
2023/10/02 04:19:49;;;;;;;10.87;4.93;;;;;;;15.63;66.25;95836.91;5019647;28;20233;-75
2023/10/02 04:22:22;;;;;;;13.03;5.27;;;;;;;15.66;65.55;95833.88;5012215;28;20248;-75
2023/10/02 04:24:54;;;;;;;11.90;5.10;;;;;;;15.71;65.61;95841.97;4988936;28;20672;-76
2023/10/02 04:27:28;;;;;;;11.30;5.00;;;;;;;15.70;65.56;95845.63;5012661;28;20304;-76
2023/10/02 04:32:39;;;;;;;12.97;4.80;;;;;;;15.53;65.35;95852.38;5027017;28;20225;-76
2023/10/02 04:35:44;;;;;;;10.33;4.70;;;;;;;15.49;65.71;95844.06;5003823;28;20257;-77
2023/10/02 04:37:58;;;;;;;10.03;4.70;;;;;;;15.59;65.22;95851.56;5037395;28;20234;-77
2023/10/02 04:40:37;;;;;;;11.60;4.60;;;;;;;15.59;65.22;95854.19;5002104;28;20226;-76
2023/10/02 04:43:19;;;;;;;12.00;5.23;;;;;;;15.63;65.08;95854.56;5018611;28;20229;-77
2023/10/02 04:46:08;;;;;;;11.80;5.40;;;;;;;15.39;65.19;95850.75;5006289;28;20226;-76
2023/10/02 04:48:42;;;;;;;12.07;4.90;;;;;;;15.45;65.64;95857.88;5018176;28;20229;-76
2023/10/02 04:51:12;;;;;;;11.97;5.10;;;;;;;15.47;65.25;95858.50;5039959;28;20273;-75
2023/10/02 04:53:45;;;;;;;11.10;4.97;;;;;;;15.49;64.99;95861.72;5007989;28;20230;-76
2023/10/02 04:58:49;;;;;;;10.83;5.17;;;;;;;15.48;65.64;95868.81;5023529;28;20707;-76
2023/10/02 05:01:29;;;;;;;10.30;4.83;;;;;;;15.50;65.41;95860.69;5038662;28;20222;-76
2023/10/02 05:03:55;;;;;;;15.80;5.00;;;;;;;15.60;65.17;95871.63;5007595;28;20236;-78
2023/10/02 05:11:52;;;;;;;10.10;5.03;;;;;;;15.50;65.21;95868.59;5021596;28;20230;-76
2023/10/02 05:15:07;;;;;;;12.77;4.77;;;;;;;15.53;65.33;95870.84;5009039;28;20253;-77
2023/10/02 05:17:17;;;;;;;13.43;5.07;;;;;;;15.62;64.20;95872.22;5003957;28;20819;-77
2023/10/02 05:20:04;;;;;;;10.90;4.67;;;;;;;15.57;64.59;95874.69;4992749;28;20255;-77
2023/10/02 05:22:31;;;;;;;11.30;4.70;;;;;;;15.53;64.79;95873.47;4991328;28;20222;-76
2023/10/02 05:25:00;;;;;;;15.80;4.70;;;;;;;15.45;64.86;95877.16;5023947;28;20755;-79
2023/10/02 05:27:30;;;;;;;12.67;4.77;;;;;;;15.56;64.36;95874.91;5007836;28;20333;-77
2023/10/02 05:29:59;;;;;;;11.37;4.50;;;;;;;15.56;63.95;95882.81;5001140;28;20242;-76
2023/10/02 05:32:35;;;;;;;13.00;4.90;;;;;;;15.63;64.28;95897.63;5014479;28;21034;-77
2023/10/02 05:35:25;;;;;;;11.23;4.80;;;;;;;15.57;64.27;95898.44;5023698;28;20241;-76
2023/10/02 05:37:51;;;;;;;12.17;4.50;;;;;;;15.44;64.65;95887.88;5021649;28;20594;-75
2023/10/02 05:43:47;;;;;;;11.77;4.60;;;;;;;15.72;63.91;95885.81;5014901;28;20853;-77
2023/10/02 05:45:50;;;;;;;17.10;5.00;;;;;;;15.75;63.66;95898.59;5013269;28;20252;-76
2023/10/02 05:50:52;;;;;;;11.90;4.77;;;;;;;15.59;63.81;95896.41;4995358;28;20260;-74
2023/10/02 05:53:19;;;;;;;15.67;5.53;;;;;;;15.45;64.20;95892.19;5023660;28;20230;-77
2023/10/02 05:55:57;;;;;;;14.17;4.70;;;;;;;15.54;64.56;95890.94;5004895;28;20238;-75
2023/10/02 05:58:31;;;;;;;13.23;4.43;;;;;;;15.47;64.19;95898.88;5019561;28;20225;-75
2023/10/02 06:01:01;;;;;;;11.80;4.70;;;;;;;15.50;64.14;95903.72;5030640;28;20717;-77
2023/10/02 06:03:28;;;;;;;12.60;4.80;;;;;;;15.54;64.29;95892.78;4998936;28;20237;-77
2023/10/02 06:06:15;;;;;;;15.40;4.67;;;;;;;15.57;64.08;95902.94;5013351;28;20239;-77
2023/10/02 06:08:42;;;;;;;9.73;4.13;;;;;;;15.27;64.34;95905.16;5034550;28;20223;-74
2023/10/02 06:11:25;;;;;;;13.50;4.40;;;;;;;15.56;63.93;95902.09;4999729;28;20226;-77
2023/10/02 06:13:55;;;;;;;10.40;4.60;;;;;;;15.66;63.03;95902.50;5021761;28;20634;-77
2023/10/02 06:16:30;;;;;;;12.63;4.63;;;;;;;15.61;62.98;95912.84;5002735;28;20236;-77
2023/10/02 06:19:04;;;;;;;12.97;4.60;;;;;;;15.54;63.86;95908.59;5020553;28;20237;-80
2023/10/02 06:21:45;;;;;;;9.80;4.67;;;;;;;15.54;63.98;95914.69;4994482;28;20252;-78
2023/10/02 06:24:14;;;;;;;11.83;4.23;;;;;;;15.67;63.63;95917.28;4994119;28;20232;-76
2023/10/02 06:26:49;;;;;;;11.23;4.77;;;;;;;15.72;63.23;95916.69;5036665;28;20757;-75
2023/10/02 06:29:22;;;;;;;13.67;4.60;;;;;;;15.45;63.74;95924.63;4997909;28;20229;-75
2023/10/02 06:31:51;;;;;;;8.87;4.43;;;;;;;15.62;63.09;95922.38;4998407;28;20226;-77
2023/10/02 06:34:18;;;;;;;11.87;4.30;;;;;;;15.71;63.08;95925.63;5008285;28;20238;-75
2023/10/02 06:37:02;;;;;;;11.60;4.27;;;;;;;15.76;62.74;95928.47;5004114;28;20697;-76
2023/10/02 06:39:29;;;;;;;11.53;4.53;;;;;;;15.96;62.74;95934.50;5015267;28;20238;-77
2023/10/02 06:42:03;;;;;;;12.67;4.67;;;;;;;15.97;62.40;95936.13;5015786;28;20224;-78
2023/10/02 06:44:42;;;;;;;10.97;4.37;;;;;;;16.02;61.76;95933.66;5002252;28;20236;-77
2023/10/02 06:47:13;;;;;;;13.40;4.60;;;;;;;16.07;61.85;95942.56;5009074;28;20237;-76
2023/10/02 06:49:43;;;;;;;15.37;4.93;;;;;;;16.12;61.80;95940.13;5007618;28;20221;-76
2023/10/02 06:52:15;;;;;;;10.40;4.10;;;;;;;16.09;61.51;95948.47;4983299;28;20260;-76
2023/10/02 06:54:55;;;;;;;11.17;4.33;;;;;;;16.09;61.74;95945.03;4990961;28;20225;-75
2023/10/02 06:57:22;;;;;;;10.30;4.50;;;;;;;15.87;61.82;95947.13;5021598;28;20283;-77
2023/10/02 06:59:51;;;;;;;11.07;3.90;;;;;;;15.96;62.33;95953.78;5015341;28;20253;-75
2023/10/02 07:02:25;;;;;;;13.70;4.60;;;;;;;15.92;62.09;95944.66;5010591;28;20253;-76
2023/10/02 07:04:52;;;;;;;10.03;4.13;;;;;;;15.94;62.38;95945.28;4994315;28;20291;-76
2023/10/02 07:07:25;;;;;;;10.17;3.97;;;;;;;16.02;62.00;95952.97;4985318;28;20715;-76
2023/10/02 07:10:11;;;;;;;14.97;4.67;;;;;;;16.07;62.73;95953.13;5008592;28;20241;-77
2023/10/02 07:12:40;;;;;;;8.70;4.27;;;;;;;16.16;62.52;95951.09;5025581;28;20248;-77
2023/10/02 07:15:13;;;;;;;11.30;4.50;;;;;;;16.16;61.87;95954.56;5012343;28;20369;-76
2023/10/02 07:17:47;;;;;;;9.40;4.30;;;;;;;16.28;62.07;95949.44;5013610;28;20230;-76
2023/10/02 07:20:15;;;;;;;11.10;4.13;;;;;;;16.40;61.50;95954.88;4983060;28;20237;-77
2023/10/02 07:22:43;;;;;;;10.73;4.63;;;;;;;16.32;61.71;95952.44;5022174;28;20300;-78
2023/10/02 07:25:09;;;;;;;10.20;4.60;;;;;;;16.43;61.62;95952.59;5019821;28;20320;-77
2023/10/02 07:27:37;;;;;;;12.07;4.30;;;;;;;16.47;61.42;95950.34;5006309;28;20254;-76
2023/10/02 07:30:03;;;;;;;12.93;4.57;;;;;;;16.41;61.55;95951.19;5009750;28;20238;-75
2023/10/02 07:32:32;;;;;;;14.63;4.67;;;;;;;16.65;61.07;95945.19;5018071;28;20412;-78
2023/10/02 07:35:20;;;;;;;11.30;4.83;;;;;;;16.73;60.89;95947.59;5007049;28;20226;-77
2023/10/02 07:37:57;;;;;;;10.43;4.33;;;;;;;16.69;61.03;95949.84;5002187;28;20233;-77
2023/10/02 07:40:46;;;;;;;13.30;4.73;;;;;;;16.69;60.62;95949.84;5015106;28;20311;-78
2023/10/02 07:43:12;;;;;;;14.37;4.57;;;;;;;16.75;61.23;95956.13;5008181;28;20733;-79
2023/10/02 07:45:38;;;;;;;11.37;4.47;;;;;;;16.95;60.82;95948.91;5023884;28;20236;-79
2023/10/02 07:48:19;;;;;;;11.17;4.40;;;;;;;16.82;60.51;95951.63;5004107;28;20241;-76
2023/10/02 07:50:44;;;;;;;11.67;4.47;;;;;;;16.82;60.80;95952.44;5018692;28;20230;-77
2023/10/02 07:53:11;;;;;;;12.03;4.70;;;;;;;16.92;60.40;95951.97;5023319;28;20304;-76
2023/10/02 07:55:43;;;;;;;13.97;4.40;;;;;;;17.02;59.82;95951.50;5000092;28;20226;-77
2023/10/02 07:58:13;;;;;;;13.87;4.60;;;;;;;17.17;59.99;95955.44;5039855;28;20234;-76
2023/10/02 08:00:42;;;;;;;10.63;4.57;;;;;;;17.21;59.18;95954.00;5000256;28;20705;-77
2023/10/02 08:03:36;;;;;;;9.13;4.30;;;;;;;17.20;59.64;95952.38;5013814;28;20229;-78
2023/10/02 08:06:20;;;;;;;11.03;4.50;;;;;;;17.32;59.50;95949.84;5017561;28;20225;-78
2023/10/02 08:08:46;;;;;;;12.27;4.57;;;;;;;17.34;59.36;95950.44;5014211;28;20230;-76
2023/10/02 08:11:11;;;;;;;11.50;4.13;;;;;;;17.39;59.27;95958.53;5012269;28;20229;-78
2023/10/02 08:13:37;;;;;;;11.83;4.73;;;;;;;17.21;59.36;95961.94;5016895;28;20288;-75
2023/10/02 08:16:12;;;;;;;10.40;4.40;;;;;;;17.27;59.76;95947.03;5024461;28;20716;-76
2023/10/02 08:19:10;;;;;;;11.47;4.53;;;;;;;17.40;59.01;95949.59;4998298;28;20868;-75
2023/10/02 08:21:35;;;;;;;11.53;4.60;;;;;;;17.59;58.63;95947.81;5006177;28;20300;-77
2023/10/02 08:24:04;;;;;;;12.40;4.60;;;;;;;17.66;58.20;95954.69;5006875;28;20300;-75
2023/10/02 08:26:40;;;;;;;11.40;4.60;;;;;;;17.55;58.01;95951.94;5018067;28;20223;-77
2023/10/02 08:29:14;;;;;;;12.77;4.87;;;;;;;17.68;57.63;95949.97;5007556;28;20226;-77
2023/10/02 08:31:43;;;;;;;11.87;4.63;;;;;;;17.77;57.60;95959.25;5040647;28;20598;-76
2023/10/02 08:34:19;;;;;;;13.10;5.10;;;;;;;17.68;57.55;95963.22;5016881;28;20232;-75
2023/10/02 08:39:33;;;;;;;13.03;4.60;;;;;;;17.84;57.26;95956.56;5006918;28;20283;-76
2023/10/02 08:41:59;;;;;;;10.83;4.57;;;;;;;17.80;57.55;95953.53;5013539;28;20707;-78
2023/10/02 08:44:25;;;;;;;13.63;4.93;;;;;;;17.94;56.84;95951.53;5020746;28;20222;-78
2023/10/02 08:46:55;;;;;;;13.27;4.70;;;;;;;17.90;56.24;95948.53;5017359;28;20222;-76
2023/10/02 08:49:25;;;;;;;11.77;4.63;;;;;;;17.97;55.40;95951.13;5001396;28;20230;-76
2023/10/02 08:51:51;;;;;;;10.70;4.50;;;;;;;17.99;55.08;95949.06;5003374;28;20229;-75
2023/10/02 08:54:18;;;;;;;15.13;4.80;;;;;;;17.98;55.24;95947.44;5009709;28;20226;-77
2023/10/02 08:56:44;;;;;;;12.37;4.70;;;;;;;17.99;55.00;95949.06;5011754;28;21000;-77
2023/10/02 08:59:35;;;;;;;13.23;4.60;;;;;;;18.17;54.64;95946.41;5017498;28;20246;-76
2023/10/02 09:02:14;;;;;;;18.70;4.53;;;;;;;18.25;53.95;95945.28;5037166;28;20234;-71
2023/10/02 09:04:52;;;;;;;12.17;4.70;;;;;;;18.30;53.37;95943.59;4994129;28;20218;-72
2023/10/02 09:07:22;;;;;;;11.27;4.47;;;;;;;18.46;52.49;95943.03;5016428;28;20237;-71
2023/10/02 09:09:54;;;;;;;13.40;4.40;;;;;;;18.54;52.02;95934.78;5018640;28;20253;-70
2023/10/02 09:12:20;;;;;;;14.60;4.80;;;;;;;18.57;51.89;95936.16;5006585;28;20233;-70
2023/10/02 09:14:46;;;;;;;12.93;5.07;;;;;;;18.61;52.23;95926.72;5016264;28;20225;-72
2023/10/02 09:17:22;;;;;;;13.37;5.00;;;;;;;18.79;51.21;95938.09;5016981;28;20329;-71
2023/10/02 09:20:00;;;;;;;13.23;5.00;;;;;;;18.79;51.01;95922.16;5023357;28;20234;-70
2023/10/02 09:22:27;;;;;;;11.63;4.70;;;;;;;18.93;50.64;95927.31;5019594;28;20392;-71
2023/10/02 09:25:26;;;;;;;13.67;4.80;;;;;;;18.95;49.40;95930.53;5009857;28;20228;-71
2023/10/02 09:27:56;;;;;;;10.67;4.67;;;;;;;19.10;50.24;95930.94;5015690;28;20246;-71
2023/10/02 09:33:05;;;;;;;14.20;4.87;;;;;;;19.04;48.62;95931.81;5019796;28;20234;-70
2023/10/02 09:37:59;;;;;;;9.60;4.37;;;;;;;19.08;48.97;95933.78;5039313;28;20246;-69
2023/10/02 09:40:28;;;;;;;13.23;4.90;;;;;;;19.28;48.93;95928.19;5019126;28;20767;-71
2023/10/02 09:43:00;;;;;;;11.27;4.70;;;;;;;19.22;47.67;95926.47;4987913;28;20618;-70
2023/10/02 09:45:35;;;;;;;12.13;4.60;;;;;;;19.31;47.97;95922.44;4994903;28;20240;-71
2023/10/02 09:48:05;;;;;;;9.63;4.40;;;;;;;19.55;47.29;95921.44;5022692;28;20240;-73
2023/10/02 09:50:32;;;;;;;13.50;4.87;;;;;;;19.62;47.62;95914.16;5019626;28;20324;-70
2023/10/02 09:53:08;;;;;;;12.10;5.10;;;;;;;19.64;47.72;95929.88;4992875;28;20240;-71
2023/10/02 09:55:44;;;;;;;13.53;4.80;;;;;;;19.76;47.51;95920.84;4990184;28;20901;-71
2023/10/02 09:58:27;;;;;;;13.37;5.10;;;;;;;19.74;48.08;95927.44;5023027;28;20774;-72
2023/10/02 10:03:53;;;;;;;14.07;4.90;;;;;;;19.91;46.78;95923.03;5022837;28;20298;-70
2023/10/02 10:06:19;;;;;;;13.83;4.80;;;;;;;20.00;46.11;95926.97;5006111;28;20240;-70
2023/10/02 10:11:37;;;;;;;9.57;4.93;;;;;;;20.02;45.76;95931.00;5023551;28;20738;-71
2023/10/02 10:14:39;;;;;;;10.97;4.80;;;;;;;20.04;46.87;95930.75;5009257;28;20230;-70
2023/10/02 10:17:12;;;;;;;11.87;4.93;;;;;;;20.15;46.11;95925.44;5036206;28;20302;-70
2023/10/02 10:19:41;;;;;;;12.63;5.27;;;;;;;20.26;45.92;95920.34;5021752;28;20877;-69
2023/10/02 10:22:36;;;;;;;12.40;5.33;;;;;;;20.34;45.30;95917.34;4992613;28;20221;-70
2023/10/02 10:27:42;;;;;;;13.33;5.10;;;;;;;20.33;45.58;95905.06;4999536;28;20237;-71
2023/10/02 10:30:27;;;;;;;12.13;4.80;;;;;;;20.34;45.34;95904.03;5022315;28;20229;-71
2023/10/02 10:33:25;;;;;;;12.47;5.20;;;;;;;20.41;45.75;95889.56;5021458;28;20232;-71
2023/10/02 10:35:55;;;;;;;11.30;5.13;;;;;;;20.66;45.23;95890.03;5021922;28;20246;-71
2023/10/02 10:38:36;;;;;;;11.40;5.20;;;;;;;20.93;45.10;95884.91;5003431;28;20963;-71
2023/10/02 10:41:05;;;;;;;13.87;5.27;;;;;;;20.93;44.20;95892.09;5020863;28;20233;-70
2023/10/02 10:43:46;;;;;;;13.80;5.00;;;;;;;21.01;44.31;95887.19;5013036;28;20232;-71
2023/10/02 10:46:31;;;;;;;10.77;5.07;;;;;;;21.11;44.46;95875.94;4991749;28;20231;-70
2023/10/02 10:49:23;;;;;;;11.53;5.50;;;;;;;20.95;44.62;95871.34;5012181;28;20250;-70
2023/10/02 10:51:49;;;;;;;13.23;5.13;;;;;;;21.28;44.44;95876.75;5018116;28;20747;-72
2023/10/02 10:54:27;;;;;;;12.47;5.67;;;;;;;21.06;44.04;95870.53;5014514;28;20288;-71
2023/10/02 10:57:18;;;;;;;11.53;5.03;;;;;;;21.03;44.30;95874.44;5037061;28;20787;-71
2023/10/02 10:59:47;;;;;;;12.80;5.17;;;;;;;21.31;44.34;95871.75;5008085;28;20850;-71
2023/10/02 11:02:14;;;;;;;11.40;5.00;;;;;;;21.52;44.57;95862.19;5016376;28;20228;-70
2023/10/02 11:04:49;;;;;;;12.60;5.40;;;;;;;21.70;43.47;95866.44;5038748;28;20229;-72
2023/10/02 11:07:23;;;;;;;10.20;5.30;;;;;;;21.78;43.36;95864.16;5005962;28;20229;-71
2023/10/02 11:10:14;;;;;;;11.03;5.07;;;;;;;21.80;42.79;95862.06;5020543;28;20234;-72
2023/10/02 11:12:40;;;;;;;12.40;5.60;;;;;;;21.67;42.47;95857.09;5017490;28;20230;-71
2023/10/02 11:15:44;;;;;;;12.67;5.53;;;;;;;21.71;43.34;95857.41;5004535;28;20226;-72
2023/10/02 11:18:19;;;;;;;13.20;5.30;;;;;;;21.87;42.80;95859.25;5003854;28;20584;-70
2023/10/02 11:20:57;;;;;;;12.57;5.47;;;;;;;22.04;42.34;95855.47;5004667;28;20226;-70
2023/10/02 11:23:43;;;;;;;11.87;5.40;;;;;;;22.01;42.53;95847.16;5016777;28;20222;-70
2023/10/02 11:26:13;;;;;;;11.27;5.13;;;;;;;22.03;42.32;95840.53;5006990;28;20230;-72
2023/10/02 11:28:40;;;;;;;10.30;5.20;;;;;;;21.95;42.90;95837.47;5000631;28;20229;-70
2023/10/02 11:31:32;;;;;;;11.10;5.23;;;;;;;22.00;42.73;95840.22;5005298;28;20227;-70
2023/10/02 11:34:08;;;;;;;11.03;5.53;;;;;;;21.69;43.35;95840.84;5022363;28;20416;-71
2023/10/02 11:36:34;;;;;;;16.07;5.60;;;;;;;22.04;43.33;95839.47;5005545;28;20246;-70
2023/10/02 11:39:09;;;;;;;15.00;5.60;;;;;;;22.15;42.68;95835.06;5022154;28;20248;-71
2023/10/02 11:41:38;;;;;;;12.60;5.37;;;;;;;22.07;43.05;95835.50;5008177;28;20248;-72
2023/10/02 11:44:05;;;;;;;12.93;5.23;;;;;;;22.17;43.29;95829.47;5008761;28;20230;-69
2023/10/02 11:46:31;;;;;;;11.93;5.27;;;;;;;22.24;43.36;95827.44;4992153;28;20230;-71
2023/10/02 11:48:57;;;;;;;10.80;5.00;;;;;;;22.14;43.50;95828.94;5008027;28;20287;-71
2023/10/02 11:51:28;;;;;;;11.00;5.60;;;;;;;22.14;42.74;95828.13;5017049;28;20230;-71
2023/10/02 11:54:01;;;;;;;10.73;5.27;;;;;;;22.13;43.39;95830.00;5024544;28;20316;-72
2023/10/02 11:56:26;;;;;;;11.40;5.30;;;;;;;22.25;42.73;95831.72;5019004;28;20230;-70
2023/10/02 11:58:52;;;;;;;12.20;5.80;;;;;;;22.07;43.43;95836.31;5024812;28;20716;-70
2023/10/02 12:01:26;;;;;;;13.88;5.63;;;;;;;22.22;43.26;95833.03;4996060;28;20234;-71
2023/10/02 12:03:56;;;;;;;10.63;5.43;;;;;;;22.26;43.65;95836.00;4993351;28;20222;-70
2023/10/02 12:06:23;;;;;;;10.80;5.67;;;;;;;22.39;43.29;95819.59;5024107;28;20222;-71
2023/10/02 12:08:49;;;;;;;11.43;5.73;;;;;;;22.30;43.26;95824.59;5006169;28;20226;-71
2023/10/02 12:11:15;;;;;;;12.10;5.53;;;;;;;22.22;43.29;95817.00;5009273;28;20225;-71
2023/10/02 12:13:42;;;;;;;13.93;5.78;;;;;;;21.93;43.59;95810.25;4996987;28;20229;-71
2023/10/02 12:16:11;;;;;;;14.30;6.10;;;;;;;21.98;44.35;95826.31;5017113;28;20230;-71
2023/10/02 12:18:41;;;;;;;16.50;6.70;;;;;;;21.59;44.01;95824.72;5025149;28;20233;-72
2023/10/02 12:21:08;;;;;;;14.53;6.43;;;;;;;21.45;44.66;95824.25;5008386;28;20257;-72
2023/10/02 12:23:39;;;;;;;14.47;6.70;;;;;;;21.32;44.97;95819.28;4999755;28;20226;-71
2023/10/02 12:26:04;;;;;;;13.27;6.50;;;;;;;21.43;44.55;95821.03;5019148;28;20237;-71
2023/10/02 12:28:30;;;;;;;16.63;6.10;;;;;;;21.76;43.90;95820.13;5017881;28;20230;-72
2023/10/02 12:30:55;;;;;;;14.63;6.30;;;;;;;21.91;43.51;95813.19;5015533;28;20285;-70
2023/10/02 12:33:21;;;;;;;14.50;6.20;;;;;;;22.02;43.38;95814.91;5015643;28;20280;-71
2023/10/02 12:35:46;;;;;;;10.77;5.27;;;;;;;22.07;43.34;95811.50;5007302;28;20238;-71
2023/10/02 12:38:13;;;;;;;11.33;5.40;;;;;;;22.18;43.53;95799.91;5005000;28;20238;-71
2023/10/02 12:40:39;;;;;;;10.63;5.10;;;;;;;21.93;43.49;95812.94;5023984;28;20229;-71
2023/10/02 12:43:05;;;;;;;13.73;5.73;;;;;;;21.76;44.61;95814.81;5018284;28;20321;-71
2023/10/02 12:45:35;;;;;;;12.73;5.47;;;;;;;21.83;44.25;95810.13;5025308;28;20330;-70
2023/10/02 12:48:09;;;;;;;10.93;5.60;;;;;;;21.89;44.13;95807.31;5017138;28;20300;-72